CYDF/YDF METAR and TAF weather

Enter ICAO airport designator
Station Type Date Time Source
CYDF METAR 2018/12/13 15:00 UTC NOAA

CYDF 131500Z 27010G15KT 15SM SCT025 M07/M13 A3003 RMK SC3 SLP171


Station Type Date Time Source
CYDF Decoded METAR 2018/12/13 15:00 UTC NOAA

Deer Lake, Nfld., Canada (CYDF) 49-13N 057-24W 22M
Dec 13, 2018 - 10:00 AM EST / 2018.12.13 1500 UTC
Wind: from the W (270 degrees) at 12 MPH (10 KT) gusting to 17 MPH (15 KT):0
Visibility: 15 mile(s):0
Sky conditions: partly cloudy
Temperature: 19 F (-7 C)
Windchill: 6 F (-14 C):1
Dew Point: 8 F (-13 C)
Relative Humidity: 62%
Pressure (altimeter): 30.03 in. Hg (1016 hPa)
ob: CYDF 131500Z 27010G15KT 15SM SCT025 M07/M13 A3003 RMK SC3 SLP171
cycle: 15

Station Type Date Time Source
CYDF TAF 2018/12/13 14:39 UTC NOAA

TAF CYDF 131338Z 1314/1402 28008KT P6SM -SHSN BKN020
TEMPO 1314/1322 P6SM NSW SCT020
BECMG 1314/1316 26012G22KT
FM132200 26012G22KT P6SM SCT020 BKN120
FM140000 26012G22KT P6SM FEW020 SCT180
RMK NXT FCST BY 132000Z


Example: see airport list